createdAt,value
2022-08-27T00:01:47.074Z,98728.00
2022-08-27T00:04:16.596Z,98732.00
2022-08-27T00:06:46.353Z,98733.00
2022-08-27T00:09:16.139Z,98745.00
2022-08-27T00:11:53.132Z,98737.00
2022-08-27T00:14:22.537Z,98743.00
2022-08-27T00:16:51.941Z,98742.00
2022-08-27T00:19:22.343Z,98749.00
2022-08-27T00:21:51.976Z,98756.00
2022-08-27T00:24:21.242Z,98760.00
2022-08-27T00:26:54.347Z,98759.00
2022-08-27T00:29:23.657Z,98765.00
2022-08-27T00:31:53.997Z,98768.00
2022-08-27T00:34:25.022Z,98771.00
2022-08-27T00:36:54.437Z,98763.00
2022-08-27T00:39:24.079Z,98766.00
2022-08-27T00:41:53.319Z,98782.00
2022-08-27T00:44:22.643Z,98777.00
2022-08-27T00:46:57.521Z,98773.00
2022-08-27T00:50:00.971Z,98772.00
2022-08-27T00:52:38.098Z,98770.00
2022-08-27T00:55:16.068Z,98780.00
2022-08-27T00:57:55.233Z,98777.00
2022-08-27T01:00:25.137Z,98782.00
2022-08-27T01:02:54.875Z,98779.00
2022-08-27T01:05:28.311Z,98785.00
2022-08-27T01:08:09.258Z,98788.00
2022-08-27T01:10:41.024Z,98796.00
2022-08-27T01:13:18.685Z,98794.00
2022-08-27T01:15:48.782Z,98798.00
2022-08-27T01:18:20.306Z,98798.00
2022-08-27T01:21:29.974Z,98805.00
2022-08-27T01:24:31.578Z,98798.00
2022-08-27T01:27:03.861Z,98802.00
2022-08-27T01:29:33.800Z,98802.00
2022-08-27T01:32:16.237Z,98807.00
2022-08-27T01:34:46.427Z,98801.00
2022-08-27T01:37:23.693Z,98792.00
2022-08-27T01:39:56.428Z,98796.00
2022-08-27T01:42:54.254Z,98792.00
2022-08-27T01:45:30.790Z,98793.00
2022-08-27T01:48:01.387Z,98798.00
2022-08-27T01:50:41.649Z,98793.00
2022-08-27T01:53:21.654Z,98801.00
2022-08-27T01:55:54.225Z,98787.00
2022-08-27T01:58:30.423Z,98796.00
2022-08-27T02:01:06.858Z,98792.00
2022-08-27T02:03:38.052Z,98784.00
2022-08-27T02:06:12.374Z,98798.00
2022-08-27T02:08:45.244Z,98795.00
2022-08-27T02:11:14.585Z,98794.00
2022-08-27T02:13:43.908Z,98795.00
2022-08-27T02:16:14.446Z,98798.00
2022-08-27T02:18:43.728Z,98797.00
2022-08-27T02:21:13.948Z,98787.00
2022-08-27T02:23:43.676Z,98787.00
2022-08-27T02:26:13.668Z,98786.00
2022-08-27T02:28:45.171Z,98786.00
2022-08-27T02:31:15.217Z,98788.00
2022-08-27T02:33:45.177Z,98791.00
2022-08-27T02:36:14.783Z,98795.00
2022-08-27T02:38:45.284Z,98788.00
2022-08-27T02:41:15.408Z,98795.00
2022-08-27T02:43:46.424Z,98792.00
2022-08-27T02:46:16.147Z,98792.00
2022-08-27T02:48:45.714Z,98787.00
2022-08-27T02:51:15.052Z,98793.00
2022-08-27T02:53:45.055Z,98795.00
2022-08-27T02:56:15.185Z,98785.00
2022-08-27T02:58:51.104Z,98781.00
2022-08-27T03:01:20.454Z,98780.00
2022-08-27T03:03:52.598Z,98777.00
2022-08-27T03:06:24.259Z,98785.00
2022-08-27T03:08:54.450Z,98785.00
2022-08-27T03:11:24.617Z,98773.00
2022-08-27T03:13:54.447Z,98785.00
2022-08-27T03:16:23.952Z,98780.00
2022-08-27T03:18:54.130Z,98782.00
2022-08-27T03:21:26.857Z,98786.00
2022-08-27T03:23:56.468Z,98780.00
2022-08-27T03:26:26.726Z,98772.00
2022-08-27T03:28:56.966Z,98776.00
2022-08-27T03:31:29.151Z,98771.00
2022-08-27T03:34:05.463Z,98776.00
2022-08-27T03:36:34.986Z,98776.00
2022-08-27T03:39:04.513Z,98781.00
2022-08-27T03:41:39.939Z,98777.00
2022-08-27T03:44:24.616Z,98783.00
2022-08-27T03:46:54.470Z,98776.00
2022-08-27T03:49:25.421Z,98773.00
2022-08-27T03:51:56.467Z,98777.00
2022-08-27T03:54:26.259Z,98773.00
2022-08-27T03:56:55.473Z,98778.00
2022-08-27T03:59:24.763Z,98782.00
2022-08-27T04:01:54.200Z,98769.00
2022-08-27T04:04:24.859Z,98770.00
2022-08-27T04:06:54.180Z,98770.00
2022-08-27T04:09:27.406Z,98771.00
2022-08-27T04:11:56.760Z,98769.00
2022-08-27T04:14:27.351Z,98767.00
2022-08-27T04:17:00.355Z,98762.00
2022-08-27T04:19:31.334Z,98769.00
2022-08-27T04:22:05.480Z,98763.00
2022-08-27T04:24:38.578Z,98760.00
2022-08-27T04:27:08.529Z,98770.00
2022-08-27T04:29:38.302Z,98757.00
2022-08-27T04:32:09.657Z,98748.00
2022-08-27T04:34:39.146Z,98744.00
2022-08-27T04:37:08.814Z,98733.00
2022-08-27T04:39:39.523Z,98729.00
2022-08-27T04:42:09.243Z,98732.00
2022-08-27T04:44:38.828Z,98729.00
2022-08-27T04:47:08.434Z,98730.00
2022-08-27T04:49:38.753Z,98724.00
2022-08-27T04:52:10.661Z,98732.00
2022-08-27T04:54:40.775Z,98726.00
2022-08-27T04:57:10.332Z,98724.00
2022-08-27T04:59:40.108Z,98722.00
2022-08-27T05:02:11.933Z,98729.00
2022-08-27T05:04:42.928Z,98723.00
2022-08-27T05:07:12.793Z,98719.00
2022-08-27T05:09:43.048Z,98719.00
2022-08-27T05:12:12.471Z,98713.00
2022-08-27T05:14:41.843Z,98707.00
2022-08-27T05:17:11.183Z,98707.00
2022-08-27T05:19:40.503Z,98711.00
2022-08-27T05:22:12.680Z,98707.00
2022-08-27T05:24:41.949Z,98699.00
2022-08-27T05:27:11.632Z,98705.00
2022-08-27T05:29:42.304Z,98705.00
2022-08-27T05:32:11.864Z,98712.00
2022-08-27T05:34:41.267Z,98700.00
2022-08-27T05:37:11.240Z,98702.00
2022-08-27T05:39:40.587Z,98698.00
2022-08-27T05:42:10.033Z,98699.00
2022-08-27T05:44:41.668Z,98700.00
2022-08-27T05:47:12.009Z,98694.00
2022-08-27T05:49:41.258Z,98694.00
2022-08-27T05:52:14.030Z,98696.00
2022-08-27T05:54:43.210Z,98695.00
2022-08-27T05:57:12.769Z,98691.00
2022-08-27T05:59:54.406Z,98691.00
2022-08-27T06:02:24.077Z,98683.00
2022-08-27T06:04:54.545Z,98679.00
2022-08-27T06:07:23.909Z,98672.00
2022-08-27T06:09:53.357Z,98671.00
2022-08-27T06:12:28.287Z,98668.00
2022-08-27T06:14:58.621Z,98665.00
2022-08-27T06:17:28.135Z,98661.00
2022-08-27T06:19:58.122Z,98658.00
2022-08-27T06:22:27.551Z,98654.00
2022-08-27T06:25:10.671Z,98649.00
2022-08-27T06:28:16.370Z,98644.00
2022-08-27T06:31:06.389Z,98640.00
2022-08-27T06:33:48.254Z,98631.00
2022-08-27T06:36:22.215Z,98640.00
2022-08-27T06:38:52.765Z,98625.00
2022-08-27T06:41:27.730Z,98622.00
2022-08-27T06:43:59.431Z,98631.00
2022-08-27T06:46:30.387Z,98617.00
2022-08-27T06:49:02.657Z,98609.00
2022-08-27T06:51:36.069Z,98606.00
2022-08-27T06:54:10.483Z,98607.00
2022-08-27T06:56:40.867Z,98604.00
2022-08-27T06:59:16.108Z,98596.00
2022-08-27T07:01:52.259Z,98595.00
2022-08-27T07:04:32.540Z,98597.00
2022-08-27T07:07:04.801Z,98594.00
2022-08-27T07:09:36.304Z,98590.00
2022-08-27T07:12:07.011Z,98595.00
2022-08-27T07:14:38.313Z,98594.00
2022-08-27T07:17:11.291Z,98589.00
2022-08-27T07:19:46.381Z,98593.00
2022-08-27T07:22:15.977Z,98586.00
2022-08-27T07:24:45.318Z,98584.00
2022-08-27T07:27:14.654Z,98584.00
2022-08-27T07:29:44.053Z,98585.00
2022-08-27T07:32:13.451Z,98585.00
2022-08-27T07:34:42.664Z,98577.00
2022-08-27T07:37:12.090Z,98568.00
2022-08-27T07:39:41.359Z,98575.00
2022-08-27T07:42:22.950Z,98570.00
2022-08-27T07:44:52.321Z,98558.00
2022-08-27T07:47:21.676Z,98565.00
2022-08-27T07:49:51.300Z,98565.00
2022-08-27T07:52:23.603Z,98560.00
2022-08-27T07:54:55.814Z,98564.00
2022-08-27T07:57:25.102Z,98558.00
2022-08-27T07:59:54.537Z,98561.00
2022-08-27T08:02:23.965Z,98550.00
2022-08-27T08:04:53.376Z,98544.00
2022-08-27T08:07:22.970Z,98537.00
2022-08-27T08:09:54.865Z,98534.00
2022-08-27T08:12:26.495Z,98542.00
2022-08-27T08:14:58.990Z,98538.00
2022-08-27T08:17:28.826Z,98529.00
2022-08-27T08:20:18.391Z,98522.00
2022-08-27T08:22:49.952Z,98538.00
2022-08-27T08:25:19.703Z,98530.00
2022-08-27T08:27:49.433Z,98522.00
2022-08-27T08:30:18.856Z,98528.00
2022-08-27T08:32:48.471Z,98525.00
2022-08-27T08:35:18.907Z,98519.00
2022-08-27T08:37:48.629Z,98516.00
2022-08-27T08:40:35.703Z,98521.00
2022-08-27T08:43:08.117Z,98520.00
2022-08-27T08:45:42.504Z,98513.00
2022-08-27T08:48:22.054Z,98512.00
2022-08-27T08:51:32.452Z,98502.00
2022-08-27T08:54:11.812Z,98499.00
2022-08-27T08:57:09.332Z,98498.00
2022-08-27T08:59:47.708Z,98487.00
2022-08-27T09:02:17.728Z,98485.00
2022-08-27T09:04:47.177Z,98483.00
2022-08-27T09:07:48.674Z,98487.00
2022-08-27T09:10:57.636Z,98489.00
2022-08-27T09:13:40.259Z,98482.00
2022-08-27T09:16:10.770Z,98476.00
2022-08-27T09:18:43.118Z,98467.00
2022-08-27T09:21:47.522Z,98471.00
2022-08-27T09:25:00.786Z,98475.00
2022-08-27T09:27:30.824Z,98463.00
2022-08-27T09:30:02.337Z,98460.00
2022-08-27T09:32:36.152Z,98463.00
2022-08-27T09:35:12.250Z,98466.00
2022-08-27T09:37:50.072Z,98459.00
2022-08-27T09:40:33.226Z,98448.00
2022-08-27T09:43:28.035Z,98450.00
2022-08-27T09:46:08.585Z,98455.00
2022-08-27T09:48:39.757Z,98448.00
2022-08-27T09:51:16.127Z,98433.00
2022-08-27T09:54:05.269Z,98445.00
2022-08-27T09:56:43.176Z,98446.00
2022-08-27T09:59:21.735Z,98451.00
2022-08-27T10:02:16.193Z,98457.00
2022-08-27T10:04:59.851Z,98465.00
2022-08-27T10:07:56.579Z,98465.00
2022-08-27T10:10:51.236Z,98471.00
2022-08-27T10:14:00.151Z,98473.00
2022-08-27T10:17:14.310Z,98474.00
2022-08-27T10:20:30.585Z,98478.00
2022-08-27T10:23:36.824Z,98477.00
2022-08-27T10:26:42.451Z,98477.00
2022-08-27T10:29:59.941Z,98475.00
2022-08-27T10:32:57.171Z,98483.00
2022-08-27T10:35:54.577Z,98481.00
2022-08-27T10:38:47.287Z,98474.00
2022-08-27T10:41:43.575Z,98474.00
2022-08-27T10:44:52.886Z,98483.00
2022-08-27T10:48:10.521Z,98477.00
2022-08-27T10:51:10.542Z,98473.00
2022-08-27T10:54:21.966Z,98479.00
2022-08-27T10:57:28.526Z,98481.00
2022-08-27T11:00:20.920Z,98493.00
2022-08-27T11:03:16.110Z,98488.00
2022-08-27T11:05:52.308Z,98483.00
2022-08-27T11:08:51.042Z,98486.00
2022-08-27T11:15:07.157Z,98491.00
2022-08-27T11:18:17.565Z,98494.00
2022-08-27T11:21:28.640Z,98500.00
2022-08-27T11:24:34.390Z,98494.00
2022-08-27T11:27:08.596Z,98490.00
2022-08-27T11:30:03.701Z,98498.00
2022-08-27T11:32:52.243Z,98502.00
2022-08-27T11:35:49.752Z,98507.00
2022-08-27T11:38:55.492Z,98513.00
2022-08-27T11:41:53.332Z,98513.00
2022-08-27T11:44:26.582Z,98518.00
2022-08-27T11:47:22.491Z,98524.00
2022-08-27T11:50:06.278Z,98531.00
2022-08-27T11:52:43.719Z,98537.00
2022-08-27T11:55:41.355Z,98529.00
2022-08-27T11:58:32.991Z,98537.00
2022-08-27T12:01:04.938Z,98538.00
2022-08-27T12:03:38.010Z,98536.00
2022-08-27T12:06:27.522Z,98535.00
2022-08-27T12:09:17.364Z,98531.00
2022-08-27T12:12:11.299Z,98539.00
2022-08-27T12:15:01.785Z,98547.00
2022-08-27T12:17:46.398Z,98543.00
2022-08-27T12:20:54.184Z,98548.00
2022-08-27T12:23:47.290Z,98552.00
2022-08-27T12:26:36.639Z,98550.00
2022-08-27T12:29:49.875Z,98552.00
2022-08-27T12:32:48.006Z,98550.00
2022-08-27T12:35:37.939Z,98554.00
2022-08-27T12:38:37.766Z,98559.00
2022-08-27T12:41:10.046Z,98548.00
2022-08-27T12:43:44.491Z,98558.00
2022-08-27T12:46:20.247Z,98566.00
2022-08-27T12:49:35.856Z,98568.00
2022-08-27T12:51:58.943Z,98574.00
2022-08-27T12:55:14.483Z,98574.00
2022-08-27T12:58:27.916Z,98576.00
2022-08-27T13:01:41.295Z,98579.00
2022-08-27T13:04:32.162Z,98579.00
2022-08-27T13:07:01.712Z,98584.00
2022-08-27T13:09:37.365Z,98580.00
2022-08-27T13:12:18.795Z,98579.00
2022-08-27T13:14:56.868Z,98591.00
2022-08-27T13:17:27.026Z,98597.00
2022-08-27T13:20:02.544Z,98599.00
2022-08-27T13:22:45.566Z,98605.00
2022-08-27T13:25:34.356Z,98615.00
2022-08-27T13:28:15.896Z,98614.00
2022-08-27T13:30:48.910Z,98619.00
2022-08-27T13:33:36.260Z,98630.00
2022-08-27T13:36:10.660Z,98635.00
2022-08-27T13:38:50.155Z,98641.00
2022-08-27T13:41:41.265Z,98645.00
2022-08-27T13:44:32.606Z,98653.00
2022-08-27T13:47:24.502Z,98657.00
2022-08-27T13:50:05.627Z,98656.00
2022-08-27T13:52:58.843Z,98658.00
2022-08-27T13:55:33.321Z,98662.00
2022-08-27T13:58:14.951Z,98665.00
2022-08-27T14:00:46.956Z,98670.00
2022-08-27T14:03:34.145Z,98668.00
2022-08-27T14:06:04.447Z,98668.00
2022-08-27T14:08:37.701Z,98674.00
2022-08-27T14:11:11.877Z,98677.00
2022-08-27T14:13:48.197Z,98677.00
2022-08-27T14:16:33.149Z,98684.00
2022-08-27T14:19:36.315Z,98688.00
2022-08-27T14:22:07.232Z,98689.00
2022-08-27T14:24:36.518Z,98693.00
2022-08-27T14:27:15.190Z,98697.00
2022-08-27T14:29:44.893Z,98702.00
2022-08-27T14:32:14.206Z,98702.00
2022-08-27T14:34:43.687Z,98701.00
2022-08-27T14:37:14.000Z,98710.00
2022-08-27T14:39:44.946Z,98717.00
2022-08-27T14:42:15.738Z,98718.00
2022-08-27T14:44:45.811Z,98724.00
2022-08-27T14:47:17.499Z,98728.00
2022-08-27T14:49:51.965Z,98727.00
2022-08-27T14:52:21.236Z,98738.00
2022-08-27T14:54:53.536Z,98740.00
2022-08-27T14:57:23.768Z,98741.00
2022-08-27T14:59:53.060Z,98744.00
2022-08-27T15:02:24.265Z,98753.00
2022-08-27T15:04:53.751Z,98749.00
2022-08-27T15:07:24.146Z,98752.00
2022-08-27T15:09:56.362Z,98760.00
2022-08-27T15:12:26.548Z,98757.00
2022-08-27T15:14:57.127Z,98769.00
2022-08-27T15:17:34.752Z,98777.00
2022-08-27T15:20:18.953Z,98781.00
2022-08-27T15:22:53.246Z,98786.00
2022-08-27T15:25:23.594Z,98782.00
2022-08-27T15:27:54.228Z,98778.00
2022-08-27T15:30:30.335Z,98779.00
2022-08-27T15:32:59.829Z,98782.00
2022-08-27T15:35:30.152Z,98780.00
2022-08-27T15:37:59.708Z,98786.00
2022-08-27T15:40:34.131Z,98776.00
2022-08-27T15:43:07.792Z,98779.00
2022-08-27T15:45:38.099Z,98771.00
2022-08-27T15:48:07.762Z,98766.00
2022-08-27T15:50:38.492Z,98772.00
2022-08-27T15:53:10.365Z,98769.00
2022-08-27T15:55:43.302Z,98770.00
2022-08-27T15:58:13.890Z,98768.00
2022-08-27T16:00:47.462Z,98766.00
2022-08-27T16:03:32.859Z,98763.00
2022-08-27T16:06:06.555Z,98762.00
2022-08-27T16:08:41.840Z,98754.00
2022-08-27T16:11:12.010Z,98756.00
2022-08-27T16:13:43.179Z,98759.00
2022-08-27T16:16:18.600Z,98757.00
2022-08-27T16:18:48.005Z,98757.00
2022-08-27T16:21:17.315Z,98765.00
2022-08-27T16:23:46.843Z,98761.00
2022-08-27T16:26:17.886Z,98763.00
2022-08-27T16:28:47.119Z,98762.00
2022-08-27T16:31:17.618Z,98766.00
2022-08-27T16:33:47.341Z,98772.00
2022-08-27T16:36:17.277Z,98773.00
2022-08-27T16:38:46.598Z,98773.00
2022-08-27T16:41:16.287Z,98774.00
2022-08-27T16:43:47.525Z,98770.00
2022-08-27T16:46:17.380Z,98774.00
2022-08-27T16:49:01.325Z,98777.00
2022-08-27T16:51:36.992Z,98786.00
2022-08-27T16:54:08.570Z,98785.00
2022-08-27T16:56:38.507Z,98781.00
2022-08-27T16:59:08.951Z,98785.00
2022-08-27T17:01:38.918Z,98778.00
2022-08-27T17:04:14.534Z,98773.00
2022-08-27T17:06:55.876Z,98770.00
2022-08-27T17:09:25.603Z,98772.00
2022-08-27T17:12:00.201Z,98770.00
2022-08-27T17:14:31.823Z,98762.00
2022-08-27T17:17:01.394Z,98765.00
2022-08-27T17:19:30.628Z,98764.00
2022-08-27T17:22:01.155Z,98768.00
2022-08-27T17:24:30.512Z,98765.00
2022-08-27T17:27:00.292Z,98760.00
2022-08-27T17:29:30.603Z,98754.00
2022-08-27T17:31:59.861Z,98746.00
2022-08-27T17:34:29.826Z,98746.00
2022-08-27T17:36:59.182Z,98746.00
2022-08-27T17:39:29.417Z,98746.00
2022-08-27T17:41:59.399Z,98742.00
2022-08-27T17:44:36.321Z,98739.00
2022-08-27T17:47:10.134Z,98729.00
2022-08-27T17:49:40.234Z,98733.00
2022-08-27T17:52:14.017Z,98728.00
2022-08-27T17:54:55.426Z,98730.00
2022-08-27T17:57:43.171Z,98717.00
2022-08-27T18:00:15.940Z,98709.00
2022-08-27T18:02:49.884Z,98714.00
2022-08-27T18:05:25.883Z,98703.00
2022-08-27T18:07:57.966Z,98696.00
2022-08-27T18:10:29.423Z,98691.00
2022-08-27T18:12:58.703Z,98690.00
2022-08-27T18:15:33.685Z,98698.00
2022-08-27T18:18:08.072Z,98690.00
2022-08-27T18:20:42.665Z,98688.00
2022-08-27T18:23:12.611Z,98691.00
2022-08-27T18:25:43.292Z,98692.00
2022-08-27T18:28:15.214Z,98689.00
2022-08-27T18:30:47.815Z,98686.00
2022-08-27T18:33:24.267Z,98679.00
2022-08-27T18:35:53.506Z,98676.00
2022-08-27T18:38:22.797Z,98677.00
2022-08-27T18:40:52.497Z,98676.00
2022-08-27T18:43:27.752Z,98675.00
2022-08-27T18:45:57.719Z,98661.00
2022-08-27T18:48:27.041Z,98662.00
2022-08-27T18:51:00.624Z,98664.00
2022-08-27T18:53:34.471Z,98656.00
2022-08-27T18:56:06.050Z,98653.00
2022-08-27T18:58:35.980Z,98647.00
2022-08-27T19:01:07.928Z,98646.00
2022-08-27T19:03:47.951Z,98646.00
2022-08-27T19:06:21.411Z,98641.00
2022-08-27T19:08:52.365Z,98642.00
2022-08-27T19:11:21.762Z,98646.00
2022-08-27T19:14:06.673Z,98641.00
2022-08-27T19:16:51.606Z,98633.00
2022-08-27T19:19:21.072Z,98633.00
2022-08-27T19:21:51.723Z,98624.00
2022-08-27T19:24:23.151Z,98622.00
2022-08-27T19:26:54.252Z,98619.00
2022-08-27T19:29:23.667Z,98615.00
2022-08-27T19:31:52.903Z,98619.00
2022-08-27T19:34:24.158Z,98610.00
2022-08-27T19:36:53.544Z,98602.00
2022-08-27T19:39:26.499Z,98600.00
2022-08-27T19:41:56.577Z,98598.00
2022-08-27T19:44:25.951Z,98598.00
2022-08-27T19:47:00.614Z,98599.00
2022-08-27T19:49:30.187Z,98601.00
2022-08-27T19:51:59.503Z,98602.00
2022-08-27T19:54:33.631Z,98598.00
2022-08-27T19:57:03.417Z,98601.00
2022-08-27T19:59:32.667Z,98596.00
2022-08-27T20:02:02.649Z,98599.00
2022-08-27T20:04:37.275Z,98593.00
2022-08-27T20:07:11.468Z,98595.00
2022-08-27T20:09:42.764Z,98599.00
2022-08-27T20:12:14.899Z,98600.00
2022-08-27T20:14:44.878Z,98603.00
2022-08-27T20:17:20.158Z,98603.00
2022-08-27T20:19:50.299Z,98604.00
2022-08-27T20:22:19.510Z,98604.00
2022-08-27T20:24:48.850Z,98608.00
2022-08-27T20:27:18.174Z,98614.00
2022-08-27T20:29:47.435Z,98614.00
2022-08-27T20:32:16.903Z,98612.00
2022-08-27T20:34:46.715Z,98618.00
2022-08-27T20:37:18.123Z,98614.00
2022-08-27T20:39:47.551Z,98611.00
2022-08-27T20:42:16.954Z,98617.00
2022-08-27T20:44:46.390Z,98617.00
2022-08-27T20:47:16.929Z,98618.00
2022-08-27T20:49:46.395Z,98616.00
2022-08-27T20:52:15.922Z,98623.00
2022-08-27T20:54:45.623Z,98626.00
2022-08-27T20:57:15.853Z,98628.00
2022-08-27T20:59:57.403Z,98620.00
2022-08-27T21:02:31.077Z,98622.00
2022-08-27T21:05:08.101Z,98622.00
2022-08-27T21:07:38.085Z,98624.00
2022-08-27T21:10:08.927Z,98629.00
2022-08-27T21:12:38.677Z,98632.00
2022-08-27T21:15:09.733Z,98636.00
2022-08-27T21:17:39.328Z,98637.00
2022-08-27T21:20:12.259Z,98637.00
2022-08-27T21:22:44.536Z,98639.00
2022-08-27T21:25:15.562Z,98635.00
2022-08-27T21:27:44.853Z,98627.00
2022-08-27T21:30:14.745Z,98627.00
2022-08-27T21:32:44.034Z,98629.00
2022-08-27T21:35:13.346Z,98633.00
2022-08-27T21:37:42.961Z,98631.00
2022-08-27T21:40:12.859Z,98623.00
2022-08-27T21:42:42.311Z,98633.00
2022-08-27T21:45:11.801Z,98638.00
2022-08-27T21:47:41.531Z,98638.00
2022-08-27T21:50:11.597Z,98641.00
2022-08-27T21:52:41.502Z,98635.00
2022-08-27T21:55:11.506Z,98645.00
2022-08-27T21:57:41.042Z,98637.00
2022-08-27T22:00:39.993Z,98635.00
2022-08-27T22:03:11.947Z,98629.00
2022-08-27T22:05:44.287Z,98641.00
2022-08-27T22:08:17.307Z,98646.00
2022-08-27T22:10:50.729Z,98644.00
2022-08-27T22:13:21.074Z,98640.00
2022-08-27T22:15:51.281Z,98643.00
2022-08-27T22:18:23.092Z,98646.00
2022-08-27T22:20:53.761Z,98649.00
2022-08-27T22:23:23.577Z,98654.00
2022-08-27T22:25:52.976Z,98652.00
2022-08-27T22:28:22.506Z,98655.00
2022-08-27T22:30:51.940Z,98657.00
2022-08-27T22:33:21.240Z,98668.00
2022-08-27T22:35:50.595Z,98662.00
2022-08-27T22:38:19.954Z,98664.00
2022-08-27T22:40:51.376Z,98666.00
2022-08-27T22:43:21.251Z,98667.00
2022-08-27T22:45:50.451Z,98669.00
2022-08-27T22:48:19.982Z,98672.00
2022-08-27T22:50:49.301Z,98675.00
2022-08-27T22:53:18.532Z,98674.00
2022-08-27T22:55:50.231Z,98687.00
2022-08-27T22:58:24.289Z,98685.00
2022-08-27T23:00:55.808Z,98687.00
2022-08-27T23:03:25.296Z,98689.00
2022-08-27T23:05:55.849Z,98695.00
2022-08-27T23:08:25.177Z,98695.00
2022-08-27T23:10:55.820Z,98693.00
2022-08-27T23:13:25.428Z,98691.00
2022-08-27T23:15:54.805Z,98694.00
2022-08-27T23:18:24.215Z,98694.00
2022-08-27T23:20:54.006Z,98700.00
2022-08-27T23:23:25.795Z,98694.00
2022-08-27T23:26:11.869Z,98696.00
2022-08-27T23:28:41.513Z,98701.00
2022-08-27T23:31:11.290Z,98706.00
2022-08-27T23:33:41.509Z,98698.00
2022-08-27T23:36:11.255Z,98698.00
2022-08-27T23:38:41.038Z,98696.00
2022-08-27T23:41:10.291Z,98693.00
2022-08-27T23:43:39.738Z,98697.00
2022-08-27T23:46:09.319Z,98692.00
2022-08-27T23:48:40.330Z,98708.00
2022-08-27T23:51:11.086Z,98711.00
2022-08-27T23:53:40.854Z,98712.00
2022-08-27T23:56:10.969Z,98711.00
2022-08-27T23:58:40.372Z,98710.00
